sensor_id;sensor_type;location;lat;lon;timestamp;temperature;humidity
12156;DHT22;6141;49.092;8.516;2023-05-01T00:01:51;13.00;45.80
12156;DHT22;6141;49.092;8.516;2023-05-01T00:04:20;13.10;45.60
12156;DHT22;6141;49.092;8.516;2023-05-01T00:06:50;13.00;45.00
12156;DHT22;6141;49.092;8.516;2023-05-01T00:09:19;12.90;46.30
12156;DHT22;6141;49.092;8.516;2023-05-01T00:11:47;12.90;45.80
12156;DHT22;6141;49.092;8.516;2023-05-01T00:14:16;13.30;44.70
12156;DHT22;6141;49.092;8.516;2023-05-01T00:16:44;13.50;43.70
12156;DHT22;6141;49.092;8.516;2023-05-01T00:19:14;13.70;43.40
12156;DHT22;6141;49.092;8.516;2023-05-01T00:21:45;13.90;42.50
12156;DHT22;6141;49.092;8.516;2023-05-01T00:24:16;14.00;42.40
12156;DHT22;6141;49.092;8.516;2023-05-01T00:26:44;14.00;42.40
12156;DHT22;6141;49.092;8.516;2023-05-01T00:29:13;14.20;41.80
12156;DHT22;6141;49.092;8.516;2023-05-01T00:31:41;14.20;42.00
12156;DHT22;6141;49.092;8.516;2023-05-01T00:34:11;14.20;41.90
12156;DHT22;6141;49.092;8.516;2023-05-01T00:36:40;14.30;41.70
12156;DHT22;6141;49.092;8.516;2023-05-01T00:39:08;14.40;40.70
12156;DHT22;6141;49.092;8.516;2023-05-01T00:41:39;14.50;39.70
12156;DHT22;6141;49.092;8.516;2023-05-01T00:44:07;14.40;41.00
12156;DHT22;6141;49.092;8.516;2023-05-01T00:46:36;14.20;41.30
12156;DHT22;6141;49.092;8.516;2023-05-01T00:49:05;14.20;42.10
12156;DHT22;6141;49.092;8.516;2023-05-01T00:51:34;14.10;41.90
12156;DHT22;6141;49.092;8.516;2023-05-01T00:54:04;13.80;42.30
12156;DHT22;6141;49.092;8.516;2023-05-01T00:56:33;13.20;44.60
12156;DHT22;6141;49.092;8.516;2023-05-01T00:59:03;13.10;45.80
12156;DHT22;6141;49.092;8.516;2023-05-01T01:01:32;12.90;46.00
12156;DHT22;6141;49.092;8.516;2023-05-01T01:04:00;12.50;47.10
12156;DHT22;6141;49.092;8.516;2023-05-01T01:06:35;12.80;46.40
12156;DHT22;6141;49.092;8.516;2023-05-01T01:09:17;12.70;46.70
12156;DHT22;6141;49.092;8.516;2023-05-01T01:11:55;12.70;46.80
12156;DHT22;6141;49.092;8.516;2023-05-01T01:14:31;12.70;46.30
12156;DHT22;6141;49.092;8.516;2023-05-01T01:17:03;13.00;45.50
12156;DHT22;6141;49.092;8.516;2023-05-01T01:20:11;13.00;44.60
12156;DHT22;6141;49.092;8.516;2023-05-01T01:22:46;12.50;46.00
12156;DHT22;6141;49.092;8.516;2023-05-01T01:25:54;12.70;46.00
12156;DHT22;6141;49.092;8.516;2023-05-01T01:28:44;12.80;45.20
12156;DHT22;6141;49.092;8.516;2023-05-01T01:31:20;13.00;44.60
12156;DHT22;6141;49.092;8.516;2023-05-01T01:34:01;12.80;44.20
12156;DHT22;6141;49.092;8.516;2023-05-01T01:36:39;12.90;43.80
12156;DHT22;6141;49.092;8.516;2023-05-01T01:39:12;13.10;43.00
12156;DHT22;6141;49.092;8.516;2023-05-01T01:41:48;13.20;42.60
12156;DHT22;6141;49.092;8.516;2023-05-01T01:44:21;12.90;42.90
12156;DHT22;6141;49.092;8.516;2023-05-01T01:46:53;12.70;43.60
12156;DHT22;6141;49.092;8.516;2023-05-01T01:49:25;12.80;45.10
12156;DHT22;6141;49.092;8.516;2023-05-01T01:51:55;13.00;44.30
12156;DHT22;6141;49.092;8.516;2023-05-01T01:54:28;13.40;43.70
12156;DHT22;6141;49.092;8.516;2023-05-01T01:56:59;13.70;43.60
12156;DHT22;6141;49.092;8.516;2023-05-01T01:59:31;13.70;42.10
12156;DHT22;6141;49.092;8.516;2023-05-01T02:02:03;13.90;40.90
12156;DHT22;6141;49.092;8.516;2023-05-01T02:04:34;13.70;42.20
12156;DHT22;6141;49.092;8.516;2023-05-01T02:07:05;13.70;42.80
12156;DHT22;6141;49.092;8.516;2023-05-01T02:09:34;13.50;43.30
12156;DHT22;6141;49.092;8.516;2023-05-01T02:12:05;13.60;42.10
12156;DHT22;6141;49.092;8.516;2023-05-01T02:14:36;13.50;42.20
12156;DHT22;6141;49.092;8.516;2023-05-01T02:17:05;13.50;42.10
12156;DHT22;6141;49.092;8.516;2023-05-01T02:19:42;13.20;43.90
12156;DHT22;6141;49.092;8.516;2023-05-01T02:22:14;13.00;44.70
12156;DHT22;6141;49.092;8.516;2023-05-01T02:24:46;12.80;44.70
12156;DHT22;6141;49.092;8.516;2023-05-01T02:27:19;12.80;45.90
12156;DHT22;6141;49.092;8.516;2023-05-01T02:29:50;12.90;45.60
12156;DHT22;6141;49.092;8.516;2023-05-01T02:32:20;13.20;44.40
12156;DHT22;6141;49.092;8.516;2023-05-01T02:34:50;13.20;44.60
12156;DHT22;6141;49.092;8.516;2023-05-01T02:37:19;13.20;43.60
12156;DHT22;6141;49.092;8.516;2023-05-01T02:39:48;13.10;44.80
12156;DHT22;6141;49.092;8.516;2023-05-01T02:42:20;12.90;45.20
12156;DHT22;6141;49.092;8.516;2023-05-01T02:44:56;12.50;47.00
12156;DHT22;6141;49.092;8.516;2023-05-01T02:47:26;12.30;46.90
12156;DHT22;6141;49.092;8.516;2023-05-01T02:49:58;12.30;47.50
12156;DHT22;6141;49.092;8.516;2023-05-01T02:52:28;12.30;47.00
12156;DHT22;6141;49.092;8.516;2023-05-01T02:55:16;12.20;47.30
12156;DHT22;6141;49.092;8.516;2023-05-01T02:57:44;12.10;48.70
12156;DHT22;6141;49.092;8.516;2023-05-01T03:00:13;12.10;47.90
12156;DHT22;6141;49.092;8.516;2023-05-01T03:02:41;12.10;47.50
12156;DHT22;6141;49.092;8.516;2023-05-01T03:05:11;12.10;48.20
12156;DHT22;6141;49.092;8.516;2023-05-01T03:07:41;12.00;49.10
12156;DHT22;6141;49.092;8.516;2023-05-01T03:10:10;12.10;48.20
12156;DHT22;6141;49.092;8.516;2023-05-01T03:12:39;12.30;46.90
12156;DHT22;6141;49.092;8.516;2023-05-01T03:15:08;12.30;46.80
12156;DHT22;6141;49.092;8.516;2023-05-01T03:17:38;12.20;45.90
12156;DHT22;6141;49.092;8.516;2023-05-01T03:20:07;12.20;47.10
12156;DHT22;6141;49.092;8.516;2023-05-01T03:22:39;12.30;46.90
12156;DHT22;6141;49.092;8.516;2023-05-01T03:25:08;12.30;45.10
12156;DHT22;6141;49.092;8.516;2023-05-01T03:27:37;12.20;46.10
12156;DHT22;6141;49.092;8.516;2023-05-01T03:30:07;12.00;46.60
12156;DHT22;6141;49.092;8.516;2023-05-01T03:32:39;11.90;46.60
12156;DHT22;6141;49.092;8.516;2023-05-01T03:35:16;11.80;48.20
12156;DHT22;6141;49.092;8.516;2023-05-01T03:37:46;11.70;48.80
12156;DHT22;6141;49.092;8.516;2023-05-01T03:40:36;11.80;48.10
12156;DHT22;6141;49.092;8.516;2023-05-01T03:43:23;11.80;47.00
12156;DHT22;6141;49.092;8.516;2023-05-01T03:45:53;11.70;47.60
12156;DHT22;6141;49.092;8.516;2023-05-01T03:48:22;11.60;47.70
12156;DHT22;6141;49.092;8.516;2023-05-01T03:50:51;11.60;47.50
12156;DHT22;6141;49.092;8.516;2023-05-01T03:53:22;11.60;48.40
12156;DHT22;6141;49.092;8.516;2023-05-01T03:55:51;11.70;48.00
12156;DHT22;6141;49.092;8.516;2023-05-01T03:58:19;11.90;47.20
12156;DHT22;6141;49.092;8.516;2023-05-01T04:00:49;12.10;46.70
12156;DHT22;6141;49.092;8.516;2023-05-01T04:03:18;12.00;46.60
12156;DHT22;6141;49.092;8.516;2023-05-01T04:05:52;12.00;46.60
12156;DHT22;6141;49.092;8.516;2023-05-01T04:08:22;11.90;46.50
12156;DHT22;6141;49.092;8.516;2023-05-01T04:10:51;11.80;47.80
12156;DHT22;6141;49.092;8.516;2023-05-01T04:13:20;11.80;47.20
12156;DHT22;6141;49.092;8.516;2023-05-01T04:15:49;11.60;48.30
12156;DHT22;6141;49.092;8.516;2023-05-01T04:18:18;11.70;48.40
12156;DHT22;6141;49.092;8.516;2023-05-01T04:20:46;11.60;47.60
12156;DHT22;6141;49.092;8.516;2023-05-01T04:23:15;11.50;48.20
12156;DHT22;6141;49.092;8.516;2023-05-01T04:25:46;11.60;46.90
12156;DHT22;6141;49.092;8.516;2023-05-01T04:28:17;11.70;47.50
12156;DHT22;6141;49.092;8.516;2023-05-01T04:30:45;11.70;47.20
12156;DHT22;6141;49.092;8.516;2023-05-01T04:33:14;11.70;46.30
12156;DHT22;6141;49.092;8.516;2023-05-01T04:35:42;11.70;46.30
12156;DHT22;6141;49.092;8.516;2023-05-01T04:38:11;11.70;46.30
12156;DHT22;6141;49.092;8.516;2023-05-01T04:40:40;11.70;47.80
12156;DHT22;6141;49.092;8.516;2023-05-01T04:43:10;11.80;47.70
12156;DHT22;6141;49.092;8.516;2023-05-01T04:45:40;11.80;47.50
12156;DHT22;6141;49.092;8.516;2023-05-01T04:48:08;11.70;48.00
12156;DHT22;6141;49.092;8.516;2023-05-01T04:50:37;11.80;47.90
12156;DHT22;6141;49.092;8.516;2023-05-01T04:53:06;11.80;48.70
12156;DHT22;6141;49.092;8.516;2023-05-01T04:55:37;11.70;48.10
12156;DHT22;6141;49.092;8.516;2023-05-01T04:58:14;11.80;48.20
12156;DHT22;6141;49.092;8.516;2023-05-01T05:00:44;11.90;47.80
12156;DHT22;6141;49.092;8.516;2023-05-01T05:03:19;11.90;48.70
12156;DHT22;6141;49.092;8.516;2023-05-01T05:05:48;11.80;47.40
12156;DHT22;6141;49.092;8.516;2023-05-01T05:08:17;11.80;48.30
12156;DHT22;6141;49.092;8.516;2023-05-01T05:10:56;11.80;48.20
12156;DHT22;6141;49.092;8.516;2023-05-01T05:13:31;11.90;48.20
12156;DHT22;6141;49.092;8.516;2023-05-01T05:16:03;12.00;47.70
12156;DHT22;6141;49.092;8.516;2023-05-01T05:18:32;12.00;47.90
12156;DHT22;6141;49.092;8.516;2023-05-01T05:21:02;12.30;46.20
12156;DHT22;6141;49.092;8.516;2023-05-01T05:23:32;12.70;44.60
12156;DHT22;6141;49.092;8.516;2023-05-01T05:26:01;12.70;45.60
12156;DHT22;6141;49.092;8.516;2023-05-01T05:28:31;12.60;47.30
12156;DHT22;6141;49.092;8.516;2023-05-01T05:31:00;12.70;46.20
12156;DHT22;6141;49.092;8.516;2023-05-01T05:33:30;12.80;47.50
12156;DHT22;6141;49.092;8.516;2023-05-01T05:35:59;12.90;46.10
12156;DHT22;6141;49.092;8.516;2023-05-01T05:38:34;12.80;44.30
12156;DHT22;6141;49.092;8.516;2023-05-01T05:41:05;12.90;45.50
12156;DHT22;6141;49.092;8.516;2023-05-01T05:43:36;12.70;44.50
12156;DHT22;6141;49.092;8.516;2023-05-01T05:46:06;12.80;44.20
12156;DHT22;6141;49.092;8.516;2023-05-01T05:48:36;12.90;43.10
12156;DHT22;6141;49.092;8.516;2023-05-01T05:51:05;13.20;41.80
12156;DHT22;6141;49.092;8.516;2023-05-01T05:53:33;13.20;41.60
12156;DHT22;6141;49.092;8.516;2023-05-01T05:56:02;13.30;40.90
12156;DHT22;6141;49.092;8.516;2023-05-01T05:58:35;13.30;40.40
12156;DHT22;6141;49.092;8.516;2023-05-01T06:01:06;13.30;41.30
12156;DHT22;6141;49.092;8.516;2023-05-01T06:03:36;13.20;41.30
12156;DHT22;6141;49.092;8.516;2023-05-01T06:06:05;13.40;40.60
12156;DHT22;6141;49.092;8.516;2023-05-01T06:08:35;13.50;39.50
12156;DHT22;6141;49.092;8.516;2023-05-01T06:11:08;13.50;40.00
12156;DHT22;6141;49.092;8.516;2023-05-01T06:13:39;13.50;40.70
12156;DHT22;6141;49.092;8.516;2023-05-01T06:16:08;13.40;40.10
12156;DHT22;6141;49.092;8.516;2023-05-01T06:18:37;13.60;41.00
12156;DHT22;6141;49.092;8.516;2023-05-01T06:21:05;13.70;40.20
12156;DHT22;6141;49.092;8.516;2023-05-01T06:23:34;13.70;39.80
12156;DHT22;6141;49.092;8.516;2023-05-01T06:26:24;13.70;39.80
12156;DHT22;6141;49.092;8.516;2023-05-01T06:28:55;13.90;39.60
12156;DHT22;6141;49.092;8.516;2023-05-01T06:31:27;14.00;38.60
12156;DHT22;6141;49.092;8.516;2023-05-01T06:33:56;14.10;38.30
12156;DHT22;6141;49.092;8.516;2023-05-01T06:36:29;14.00;38.00
12156;DHT22;6141;49.092;8.516;2023-05-01T06:38:58;14.30;38.10
12156;DHT22;6141;49.092;8.516;2023-05-01T06:41:26;14.50;38.40
12156;DHT22;6141;49.092;8.516;2023-05-01T06:43:56;14.50;37.40
12156;DHT22;6141;49.092;8.516;2023-05-01T06:46:26;14.70;35.50
12156;DHT22;6141;49.092;8.516;2023-05-01T06:48:54;14.80;36.70
12156;DHT22;6141;49.092;8.516;2023-05-01T06:51:23;14.80;34.80
12156;DHT22;6141;49.092;8.516;2023-05-01T06:53:52;14.60;36.70
12156;DHT22;6141;49.092;8.516;2023-05-01T06:56:21;14.70;36.80
12156;DHT22;6141;49.092;8.516;2023-05-01T06:58:49;14.50;37.30
12156;DHT22;6141;49.092;8.516;2023-05-01T07:01:20;14.60;36.60
12156;DHT22;6141;49.092;8.516;2023-05-01T07:03:48;14.60;36.70
12156;DHT22;6141;49.092;8.516;2023-05-01T07:06:17;14.80;36.50
12156;DHT22;6141;49.092;8.516;2023-05-01T07:08:46;14.90;35.40
12156;DHT22;6141;49.092;8.516;2023-05-01T07:11:15;15.00;34.80
12156;DHT22;6141;49.092;8.516;2023-05-01T07:13:44;14.90;35.30
12156;DHT22;6141;49.092;8.516;2023-05-01T07:16:12;15.10;35.00
12156;DHT22;6141;49.092;8.516;2023-05-01T07:18:44;15.10;35.50
12156;DHT22;6141;49.092;8.516;2023-05-01T07:21:13;15.10;35.40
12156;DHT22;6141;49.092;8.516;2023-05-01T07:23:42;15.10;35.70
12156;DHT22;6141;49.092;8.516;2023-05-01T07:26:11;15.10;35.90
12156;DHT22;6141;49.092;8.516;2023-05-01T07:28:40;15.10;37.20
12156;DHT22;6141;49.092;8.516;2023-05-01T07:31:08;15.00;37.10
12156;DHT22;6141;49.092;8.516;2023-05-01T07:33:37;14.90;37.00
12156;DHT22;6141;49.092;8.516;2023-05-01T07:36:07;14.90;36.90
12156;DHT22;6141;49.092;8.516;2023-05-01T07:38:36;14.60;36.60
12156;DHT22;6141;49.092;8.516;2023-05-01T07:41:04;14.60;37.10
12156;DHT22;6141;49.092;8.516;2023-05-01T07:43:33;14.30;36.80
12156;DHT22;6141;49.092;8.516;2023-05-01T07:46:02;14.50;36.60
12156;DHT22;6141;49.092;8.516;2023-05-01T07:48:31;14.40;39.50
12156;DHT22;6141;49.092;8.516;2023-05-01T07:51:01;14.40;38.70
12156;DHT22;6141;49.092;8.516;2023-05-01T07:53:32;14.70;39.10
12156;DHT22;6141;49.092;8.516;2023-05-01T07:56:05;14.50;38.30
12156;DHT22;6141;49.092;8.516;2023-05-01T07:58:35;14.40;38.70
12156;DHT22;6141;49.092;8.516;2023-05-01T08:01:05;14.50;40.10
12156;DHT22;6141;49.092;8.516;2023-05-01T08:03:34;14.50;41.00
12156;DHT22;6141;49.092;8.516;2023-05-01T08:06:03;14.50;39.30
12156;DHT22;6141;49.092;8.516;2023-05-01T08:08:33;14.40;38.80
12156;DHT22;6141;49.092;8.516;2023-05-01T08:11:02;14.60;38.00
12156;DHT22;6141;49.092;8.516;2023-05-01T08:13:30;14.60;36.60
12156;DHT22;6141;49.092;8.516;2023-05-01T08:16:02;14.50;38.00
12156;DHT22;6141;49.092;8.516;2023-05-01T08:18:31;14.70;38.20
12156;DHT22;6141;49.092;8.516;2023-05-01T08:20:59;14.60;37.90
12156;DHT22;6141;49.092;8.516;2023-05-01T08:23:29;14.90;37.70
12156;DHT22;6141;49.092;8.516;2023-05-01T08:25:59;15.20;37.30
12156;DHT22;6141;49.092;8.516;2023-05-01T08:28:28;15.30;36.40
12156;DHT22;6141;49.092;8.516;2023-05-01T08:30:57;15.20;37.30
12156;DHT22;6141;49.092;8.516;2023-05-01T08:33:25;15.30;36.70
12156;DHT22;6141;49.092;8.516;2023-05-01T08:35:53;15.00;37.10
12156;DHT22;6141;49.092;8.516;2023-05-01T08:38:22;15.30;39.90
12156;DHT22;6141;49.092;8.516;2023-05-01T08:40:51;15.40;37.50
12156;DHT22;6141;49.092;8.516;2023-05-01T08:43:24;15.30;38.00
12156;DHT22;6141;49.092;8.516;2023-05-01T08:45:53;15.50;37.60
12156;DHT22;6141;49.092;8.516;2023-05-01T08:48:24;15.70;36.50
12156;DHT22;6141;49.092;8.516;2023-05-01T08:50:55;16.00;35.30
12156;DHT22;6141;49.092;8.516;2023-05-01T08:53:26;16.10;35.90
12156;DHT22;6141;49.092;8.516;2023-05-01T08:55:54;16.30;35.00
12156;DHT22;6141;49.092;8.516;2023-05-01T08:58:26;16.30;35.80
12156;DHT22;6141;49.092;8.516;2023-05-01T09:00:55;16.10;34.40
12156;DHT22;6141;49.092;8.516;2023-05-01T09:03:29;16.00;38.10
12156;DHT22;6141;49.092;8.516;2023-05-01T09:06:01;16.00;35.90
12156;DHT22;6141;49.092;8.516;2023-05-01T09:08:31;15.60;36.20
12156;DHT22;6141;49.092;8.516;2023-05-01T09:11:00;15.60;35.90
12156;DHT22;6141;49.092;8.516;2023-05-01T09:13:31;15.70;36.90
12156;DHT22;6141;49.092;8.516;2023-05-01T09:15:59;15.70;37.80
12156;DHT22;6141;49.092;8.516;2023-05-01T09:18:28;15.80;37.90
12156;DHT22;6141;49.092;8.516;2023-05-01T09:20:57;15.80;38.00
12156;DHT22;6141;49.092;8.516;2023-05-01T09:23:26;15.70;37.80
12156;DHT22;6141;49.092;8.516;2023-05-01T09:25:55;15.80;38.40
12156;DHT22;6141;49.092;8.516;2023-05-01T09:28:43;15.90;38.80
12156;DHT22;6141;49.092;8.516;2023-05-01T09:31:24;15.80;38.00
12156;DHT22;6141;49.092;8.516;2023-05-01T09:33:55;15.80;39.10
12156;DHT22;6141;49.092;8.516;2023-05-01T09:36:26;16.20;38.30
12156;DHT22;6141;49.092;8.516;2023-05-01T09:38:57;16.30;36.50
12156;DHT22;6141;49.092;8.516;2023-05-01T09:41:27;16.30;37.10
12156;DHT22;6141;49.092;8.516;2023-05-01T09:43:59;16.30;36.10
12156;DHT22;6141;49.092;8.516;2023-05-01T09:46:27;16.50;38.40
12156;DHT22;6141;49.092;8.516;2023-05-01T09:49:09;16.70;36.80
12156;DHT22;6141;49.092;8.516;2023-05-01T09:51:38;16.80;36.80
12156;DHT22;6141;49.092;8.516;2023-05-01T09:54:17;16.90;35.60
12156;DHT22;6141;49.092;8.516;2023-05-01T09:56:46;16.80;35.60
12156;DHT22;6141;49.092;8.516;2023-05-01T09:59:19;16.60;36.70
12156;DHT22;6141;49.092;8.516;2023-05-01T10:01:47;16.50;37.00
12156;DHT22;6141;49.092;8.516;2023-05-01T10:04:17;16.50;37.20
12156;DHT22;6141;49.092;8.516;2023-05-01T10:06:57;16.50;35.60
12156;DHT22;6141;49.092;8.516;2023-05-01T10:09:28;16.60;37.30
12156;DHT22;6141;49.092;8.516;2023-05-01T10:11:56;16.80;36.90
12156;DHT22;6141;49.092;8.516;2023-05-01T10:14:28;16.70;37.90
12156;DHT22;6141;49.092;8.516;2023-05-01T10:17:00;16.90;38.10
12156;DHT22;6141;49.092;8.516;2023-05-01T10:19:35;16.70;37.10
12156;DHT22;6141;49.092;8.516;2023-05-01T10:22:04;16.70;38.30
12156;DHT22;6141;49.092;8.516;2023-05-01T10:24:32;16.60;38.70
12156;DHT22;6141;49.092;8.516;2023-05-01T10:27:02;16.40;39.30
12156;DHT22;6141;49.092;8.516;2023-05-01T10:29:33;16.40;39.80
12156;DHT22;6141;49.092;8.516;2023-05-01T10:32:06;16.40;42.80
12156;DHT22;6141;49.092;8.516;2023-05-01T10:34:41;16.40;42.30
12156;DHT22;6141;49.092;8.516;2023-05-01T10:37:12;16.40;43.30
12156;DHT22;6141;49.092;8.516;2023-05-01T10:39:45;16.30;41.50
12156;DHT22;6141;49.092;8.516;2023-05-01T10:42:14;16.30;42.40
12156;DHT22;6141;49.092;8.516;2023-05-01T10:44:45;16.60;40.00
12156;DHT22;6141;49.092;8.516;2023-05-01T10:47:44;16.80;39.30
12156;DHT22;6141;49.092;8.516;2023-05-01T10:50:13;16.80;38.90
12156;DHT22;6141;49.092;8.516;2023-05-01T10:53:15;16.80;38.90
12156;DHT22;6141;49.092;8.516;2023-05-01T10:55:45;16.60;38.70
12156;DHT22;6141;49.092;8.516;2023-05-01T10:58:53;16.70;38.80
12156;DHT22;6141;49.092;8.516;2023-05-01T11:01:32;16.60;38.70
12156;DHT22;6141;49.092;8.516;2023-05-01T11:04:03;16.70;38.80
12156;DHT22;6141;49.092;8.516;2023-05-01T11:06:35;16.70;38.00
12156;DHT22;6141;49.092;8.516;2023-05-01T11:09:36;16.60;38.70
12156;DHT22;6141;49.092;8.516;2023-05-01T11:12:07;16.80;38.90
12156;DHT22;6141;49.092;8.516;2023-05-01T11:15:02;16.90;39.00
12156;DHT22;6141;49.092;8.516;2023-05-01T11:17:46;17.00;38.20
12156;DHT22;6141;49.092;8.516;2023-05-01T11:20:44;16.80;38.40
12156;DHT22;6141;49.092;8.516;2023-05-01T11:23:19;16.80;38.50
12156;DHT22;6141;49.092;8.516;2023-05-01T11:25:49;16.90;38.50
12156;DHT22;6141;49.092;8.516;2023-05-01T11:28:30;16.90;37.70
12156;DHT22;6141;49.092;8.516;2023-05-01T11:30:59;16.90;37.80
12156;DHT22;6141;49.092;8.516;2023-05-01T11:33:31;17.10;39.60
12156;DHT22;6141;49.092;8.516;2023-05-01T11:36:01;17.20;39.10
12156;DHT22;6141;49.092;8.516;2023-05-01T11:38:31;17.50;36.60
12156;DHT22;6141;49.092;8.516;2023-05-01T11:41:01;17.50;37.40
12156;DHT22;6141;49.092;8.516;2023-05-01T11:43:30;17.80;35.80
12156;DHT22;6141;49.092;8.516;2023-05-01T11:45:59;18.00;35.40
12156;DHT22;6141;49.092;8.516;2023-05-01T11:48:32;18.20;35.60
12156;DHT22;6141;49.092;8.516;2023-05-01T11:51:11;18.10;35.10
12156;DHT22;6141;49.092;8.516;2023-05-01T11:53:40;18.00;34.80
12156;DHT22;6141;49.092;8.516;2023-05-01T11:56:18;18.20;34.00
12156;DHT22;6141;49.092;8.516;2023-05-01T11:58:55;18.30;34.80
12156;DHT22;6141;49.092;8.516;2023-05-01T12:01:32;18.30;35.00
12156;DHT22;6141;49.092;8.516;2023-05-01T12:04:04;18.30;34.80
12156;DHT22;6141;49.092;8.516;2023-05-01T12:06:39;18.40;34.80
12156;DHT22;6141;49.092;8.516;2023-05-01T12:09:15;18.50;34.20
12156;DHT22;6141;49.092;8.516;2023-05-01T12:11:54;18.50;33.50
12156;DHT22;6141;49.092;8.516;2023-05-01T12:14:36;18.50;34.10
12156;DHT22;6141;49.092;8.516;2023-05-01T12:17:15;18.30;34.00
12156;DHT22;6141;49.092;8.516;2023-05-01T12:19:48;18.30;34.00
12156;DHT22;6141;49.092;8.516;2023-05-01T12:22:18;18.60;34.20
12156;DHT22;6141;49.092;8.516;2023-05-01T12:24:49;18.50;35.50
12156;DHT22;6141;49.092;8.516;2023-05-01T12:27:29;18.50;34.90
12156;DHT22;6141;49.092;8.516;2023-05-01T12:30:10;18.50;34.20
12156;DHT22;6141;49.092;8.516;2023-05-01T12:32:40;18.60;33.50
12156;DHT22;6141;49.092;8.516;2023-05-01T12:35:15;18.50;33.80
12156;DHT22;6141;49.092;8.516;2023-05-01T12:37:48;18.50;34.50
12156;DHT22;6141;49.092;8.516;2023-05-01T12:40:17;18.50;34.20
12156;DHT22;6141;49.092;8.516;2023-05-01T12:42:54;18.40;35.80
12156;DHT22;6141;49.092;8.516;2023-05-01T12:45:23;18.40;34.80
12156;DHT22;6141;49.092;8.516;2023-05-01T12:47:52;18.40;34.10
12156;DHT22;6141;49.092;8.516;2023-05-01T12:50:23;18.30;34.00
12156;DHT22;6141;49.092;8.516;2023-05-01T12:52:52;18.30;35.30
12156;DHT22;6141;49.092;8.516;2023-05-01T12:55:20;18.40;34.80
12156;DHT22;6141;49.092;8.516;2023-05-01T12:57:53;18.50;34.20
12156;DHT22;6141;49.092;8.516;2023-05-01T13:00:22;18.40;35.70
12156;DHT22;6141;49.092;8.516;2023-05-01T13:02:53;18.50;35.70
12156;DHT22;6141;49.092;8.516;2023-05-01T13:05:23;18.50;34.10
12156;DHT22;6141;49.092;8.516;2023-05-01T13:07:53;18.50;34.20
12156;DHT22;6141;49.092;8.516;2023-05-01T13:10:29;18.40;36.00
12156;DHT22;6141;49.092;8.516;2023-05-01T13:13:02;18.50;34.50
12156;DHT22;6141;49.092;8.516;2023-05-01T13:15:31;18.40;35.30
12156;DHT22;6141;49.092;8.516;2023-05-01T13:18:03;18.30;35.00
12156;DHT22;6141;49.092;8.516;2023-05-01T13:20:33;18.20;35.40
12156;DHT22;6141;49.092;8.516;2023-05-01T13:23:09;18.20;34.20
12156;DHT22;6141;49.092;8.516;2023-05-01T13:25:39;18.30;35.10
12156;DHT22;6141;49.092;8.516;2023-05-01T13:28:09;18.40;35.70
12156;DHT22;6141;49.092;8.516;2023-05-01T13:30:38;18.40;35.60
12156;DHT22;6141;49.092;8.516;2023-05-01T13:33:09;18.50;35.20
12156;DHT22;6141;49.092;8.516;2023-05-01T13:35:40;18.70;34.40
12156;DHT22;6141;49.092;8.516;2023-05-01T13:38:10;18.80;34.40
12156;DHT22;6141;49.092;8.516;2023-05-01T13:40:40;18.90;34.60
12156;DHT22;6141;49.092;8.516;2023-05-01T13:43:12;18.90;33.70
12156;DHT22;6141;49.092;8.516;2023-05-01T13:45:42;18.80;34.10
12156;DHT22;6141;49.092;8.516;2023-05-01T13:48:11;18.70;34.40
12156;DHT22;6141;49.092;8.516;2023-05-01T13:50:43;18.90;32.90
12156;DHT22;6141;49.092;8.516;2023-05-01T13:53:14;19.00;34.00
12156;DHT22;6141;49.092;8.516;2023-05-01T13:55:46;19.10;33.10
12156;DHT22;6141;49.092;8.516;2023-05-01T13:58:14;19.00;34.20
12156;DHT22;6141;49.092;8.516;2023-05-01T14:00:44;19.00;33.80
12156;DHT22;6141;49.092;8.516;2023-05-01T14:03:14;19.00;33.20
12156;DHT22;6141;49.092;8.516;2023-05-01T14:05:47;19.10;32.40
12156;DHT22;6141;49.092;8.516;2023-05-01T14:08:19;19.20;34.30
12156;DHT22;6141;49.092;8.516;2023-05-01T14:10:49;19.40;30.10
12156;DHT22;6141;49.092;8.516;2023-05-01T14:13:18;19.10;30.00
12156;DHT22;6141;49.092;8.516;2023-05-01T14:15:47;19.00;31.80
12156;DHT22;6141;49.092;8.516;2023-05-01T14:18:16;18.80;31.90
12156;DHT22;6141;49.092;8.516;2023-05-01T14:20:48;18.80;32.10
12156;DHT22;6141;49.092;8.516;2023-05-01T14:23:17;18.90;31.00
12156;DHT22;6141;49.092;8.516;2023-05-01T14:25:48;19.00;31.60
12156;DHT22;6141;49.092;8.516;2023-05-01T14:28:18;19.30;32.80
12156;DHT22;6141;49.092;8.516;2023-05-01T14:30:47;19.40;30.50
12156;DHT22;6141;49.092;8.516;2023-05-01T14:33:17;19.50;30.80
12156;DHT22;6141;49.092;8.516;2023-05-01T14:35:49;19.00;32.10
12156;DHT22;6141;49.092;8.516;2023-05-01T14:38:20;19.10;31.60
12156;DHT22;6141;49.092;8.516;2023-05-01T14:40:50;19.30;31.50
12156;DHT22;6141;49.092;8.516;2023-05-01T14:43:19;19.40;31.90
12156;DHT22;6141;49.092;8.516;2023-05-01T14:45:51;19.30;32.00
12156;DHT22;6141;49.092;8.516;2023-05-01T14:48:21;19.20;32.60
12156;DHT22;6141;49.092;8.516;2023-05-01T14:50:52;19.30;30.00
12156;DHT22;6141;49.092;8.516;2023-05-01T14:53:22;19.30;32.00
12156;DHT22;6141;49.092;8.516;2023-05-01T14:55:51;19.30;30.00
12156;DHT22;6141;49.092;8.516;2023-05-01T14:58:20;19.20;32.60
12156;DHT22;6141;49.092;8.516;2023-05-01T15:00:48;19.10;33.50
12156;DHT22;6141;49.092;8.516;2023-05-01T15:03:17;18.90;34.60
12156;DHT22;6141;49.092;8.516;2023-05-01T15:05:47;18.80;31.70
12156;DHT22;6141;49.092;8.516;2023-05-01T15:08:18;19.10;32.70
12156;DHT22;6141;49.092;8.516;2023-05-01T15:10:48;19.40;29.50
12156;DHT22;6141;49.092;8.516;2023-05-01T15:13:18;19.70;29.10
12156;DHT22;6141;49.092;8.516;2023-05-01T15:15:47;19.90;29.30
12156;DHT22;6141;49.092;8.516;2023-05-01T15:18:16;19.80;28.00
12156;DHT22;6141;49.092;8.516;2023-05-01T15:20:45;19.80;29.50
12156;DHT22;6141;49.092;8.516;2023-05-01T15:23:13;20.00;29.90
12156;DHT22;6141;49.092;8.516;2023-05-01T15:25:44;20.00;29.40
12156;DHT22;6141;49.092;8.516;2023-05-01T15:28:14;20.20;27.60
12156;DHT22;6141;49.092;8.516;2023-05-01T15:30:44;20.20;27.90
12156;DHT22;6141;49.092;8.516;2023-05-01T15:33:13;20.20;27.80
12156;DHT22;6141;49.092;8.516;2023-05-01T15:35:46;20.20;27.70
12156;DHT22;6141;49.092;8.516;2023-05-01T15:38:15;20.00;28.10
12156;DHT22;6141;49.092;8.516;2023-05-01T15:40:45;20.00;28.90
12156;DHT22;6141;49.092;8.516;2023-05-01T15:43:17;20.00;28.10
12156;DHT22;6141;49.092;8.516;2023-05-01T15:45:46;20.00;29.40
12156;DHT22;6141;49.092;8.516;2023-05-01T15:48:14;20.20;27.50
12156;DHT22;6141;49.092;8.516;2023-05-01T15:50:45;20.00;28.30
12156;DHT22;6141;49.092;8.516;2023-05-01T15:53:15;20.00;28.00
12156;DHT22;6141;49.092;8.516;2023-05-01T15:55:45;20.00;28.10
12156;DHT22;6141;49.092;8.516;2023-05-01T15:58:14;20.00;26.80
12156;DHT22;6141;49.092;8.516;2023-05-01T16:00:44;19.90;28.20
12156;DHT22;6141;49.092;8.516;2023-05-01T16:03:16;19.90;27.60
12156;DHT22;6141;49.092;8.516;2023-05-01T16:05:44;20.00;26.70
12156;DHT22;6141;49.092;8.516;2023-05-01T16:08:13;20.00;28.70
12156;DHT22;6141;49.092;8.516;2023-05-01T16:10:42;20.10;27.70
12156;DHT22;6141;49.092;8.516;2023-05-01T16:13:12;20.20;27.50